createdAt,value
2023-02-08T09:34:28.734Z,100.00
2023-02-08T09:37:42.506Z,100.00
2023-02-08T09:40:59.919Z,100.00
2023-02-08T09:48:04.136Z,97.36
2023-02-08T09:51:22.106Z,94.80
2023-02-08T09:54:42.862Z,92.81
2023-02-08T09:58:07.881Z,93.78
2023-02-08T10:01:19.632Z,92.49
2023-02-08T10:04:38.552Z,89.94
2023-02-08T10:08:09.509Z,89.93
2023-02-08T10:11:49.256Z,86.72
2023-02-08T10:15:13.399Z,84.59
2023-02-08T10:18:53.585Z,83.75
2023-02-08T10:22:21.447Z,84.50
2023-02-08T10:25:59.465Z,85.28
2023-02-08T10:30:00.588Z,85.03
2023-02-08T10:33:09.550Z,84.22
2023-02-08T10:36:17.041Z,82.83
2023-02-08T10:39:25.484Z,83.36
2023-02-08T10:42:30.940Z,80.83
2023-02-08T10:45:42.233Z,81.61
2023-02-08T10:49:00.009Z,79.67
2023-02-08T10:52:03.268Z,78.49
2023-02-08T10:55:14.845Z,81.10
2023-02-08T10:58:21.295Z,80.11
2023-02-08T11:01:24.307Z,79.07
2023-02-08T11:04:27.010Z,79.03
2023-02-08T11:07:30.168Z,79.15
2023-02-08T11:10:33.076Z,79.04
2023-02-08T11:13:39.140Z,79.60
2023-02-08T11:16:43.256Z,78.98
2023-02-08T11:19:46.964Z,79.25
2023-02-08T11:22:49.470Z,78.12
2023-02-08T11:25:53.257Z,79.06
2023-02-08T11:29:06.046Z,77.93
2023-02-08T11:32:18.255Z,76.75
2023-02-08T11:35:22.610Z,76.07
2023-02-08T11:38:27.629Z,76.55
2023-02-08T11:41:30.863Z,77.11
2023-02-08T11:44:36.898Z,76.11
2023-02-08T11:47:39.477Z,76.14
2023-02-08T11:50:42.880Z,75.77
2023-02-08T11:53:49.261Z,75.56
2023-02-08T11:57:02.813Z,76.19
2023-02-08T12:00:21.038Z,76.97
2023-02-08T12:03:27.362Z,78.31
2023-02-08T12:07:02.710Z,76.51
2023-02-08T12:10:32.254Z,75.66
2023-02-08T12:13:57.073Z,76.21
2023-02-08T12:17:25.713Z,75.54
2023-02-08T12:20:37.077Z,75.46
2023-02-08T12:23:51.421Z,73.20
2023-02-08T12:27:08.891Z,72.55
2023-02-08T12:30:21.370Z,72.83
2023-02-08T12:33:40.017Z,72.41
2023-02-08T12:37:16.366Z,72.93
2023-02-08T12:40:49.012Z,73.51
2023-02-08T12:44:02.274Z,72.53
2023-02-08T12:47:16.961Z,72.43
2023-02-08T12:50:27.426Z,72.62
2023-02-08T12:53:34.789Z,72.47
2023-02-08T12:56:42.441Z,72.64
2023-02-08T12:59:50.679Z,71.71
2023-02-08T13:03:02.900Z,70.65
2023-02-08T13:06:09.002Z,70.95
2023-02-08T13:09:18.940Z,71.26
2023-02-08T13:12:24.862Z,70.98
2023-02-08T13:15:33.775Z,69.76
2023-02-08T13:18:40.914Z,68.85
2023-02-08T13:21:45.545Z,68.53
2023-02-08T13:24:55.294Z,68.41
2023-02-08T13:28:05.832Z,68.12
2023-02-08T13:31:14.215Z,68.08
2023-02-08T13:34:23.485Z,68.40
2023-02-08T13:37:31.469Z,67.99
2023-02-08T13:40:36.264Z,67.16
2023-02-08T13:43:43.572Z,68.38
2023-02-08T13:46:48.579Z,67.88
2023-02-08T13:50:00.858Z,67.18
2023-02-08T13:53:05.342Z,68.10
2023-02-08T13:56:10.350Z,65.93
2023-02-08T13:59:30.133Z,66.49
2023-02-08T14:02:32.645Z,66.52
2023-02-08T14:05:47.293Z,65.44
2023-02-08T14:08:58.369Z,66.18
2023-02-08T14:12:06.250Z,66.64
2023-02-08T14:15:26.459Z,66.94
2023-02-08T14:18:29.833Z,66.42
2023-02-08T14:21:37.348Z,67.63
2023-02-08T14:24:43.913Z,67.99
2023-02-08T14:27:52.470Z,69.25
2023-02-08T14:30:58.829Z,68.91
2023-02-08T14:34:01.525Z,69.29
2023-02-08T14:37:07.574Z,69.04
2023-02-08T14:40:35.107Z,69.25
2023-02-08T14:43:39.119Z,69.08
2023-02-08T14:46:45.641Z,70.49
2023-02-08T14:49:48.966Z,71.04
2023-02-08T14:52:59.883Z,72.05
2023-02-08T14:56:08.507Z,72.03
2023-02-08T14:59:15.718Z,72.56
2023-02-08T15:02:22.861Z,73.24
2023-02-08T15:05:28.069Z,73.43
2023-02-08T15:08:30.722Z,75.09
2023-02-08T15:11:36.350Z,75.80
2023-02-08T15:14:41.834Z,76.20
2023-02-08T15:17:48.075Z,76.36
2023-02-08T15:21:01.712Z,78.38
2023-02-08T15:24:07.847Z,79.42
2023-02-08T15:27:21.959Z,79.86
2023-02-08T15:30:32.754Z,81.31
2023-02-08T15:33:38.129Z,82.68
2023-02-08T15:36:40.920Z,84.81
2023-02-08T15:39:43.756Z,87.41
2023-02-08T15:42:47.634Z,88.01
2023-02-08T15:45:57.691Z,89.54
2023-02-08T15:49:00.666Z,91.51
2023-02-08T15:52:04.207Z,91.34
2023-02-08T15:55:07.859Z,91.93
2023-02-08T15:58:19.426Z,93.44
